sensor_id;sensor_type;location;lat;lon;timestamp;P1;durP1;ratioP1;P2;durP2;ratioP2
44440;SDS011;30146;52.268;20.944;2022-08-19T00:00:11;10.10;;;7.40;;
44440;SDS011;30146;52.268;20.944;2022-08-19T00:02:42;15.60;;;7.80;;
44440;SDS011;30146;52.268;20.944;2022-08-19T00:05:17;16.60;;;8.50;;
44440;SDS011;30146;52.268;20.944;2022-08-19T00:07:47;10.50;;;7.50;;
44440;SDS011;30146;52.268;20.944;2022-08-19T00:10:16;12.00;;;8.50;;
44440;SDS011;30146;52.268;20.944;2022-08-19T00:12:46;16.40;;;8.80;;
44440;SDS011;30146;52.268;20.944;2022-08-19T00:15:15;11.80;;;8.40;;
44440;SDS011;30146;52.268;20.944;2022-08-19T00:17:47;13.00;;;7.90;;
44440;SDS011;30146;52.268;20.944;2022-08-19T00:20:17;16.90;;;8.30;;
44440;SDS011;30146;52.268;20.944;2022-08-19T00:22:47;13.30;;;7.80;;
44440;SDS011;30146;52.268;20.944;2022-08-19T00:25:15;15.90;;;8.30;;
44440;SDS011;30146;52.268;20.944;2022-08-19T00:27:56;15.10;;;8.50;;
44440;SDS011;30146;52.268;20.944;2022-08-19T00:30:26;15.50;;;7.90;;
44440;SDS011;30146;52.268;20.944;2022-08-19T00:32:54;15.10;;;7.80;;
44440;SDS011;30146;52.268;20.944;2022-08-19T00:35:23;12.60;;;7.50;;
44440;SDS011;30146;52.268;20.944;2022-08-19T00:37:54;15.90;;;8.20;;
44440;SDS011;30146;52.268;20.944;2022-08-19T00:40:23;8.90;;;7.30;;
44440;SDS011;30146;52.268;20.944;2022-08-19T00:42:52;17.70;;;7.60;;
44440;SDS011;30146;52.268;20.944;2022-08-19T00:45:22;14.70;;;8.80;;
44440;SDS011;30146;52.268;20.944;2022-08-19T00:47:53;17.40;;;8.50;;
44440;SDS011;30146;52.268;20.944;2022-08-19T00:50:21;12.40;;;7.90;;
44440;SDS011;30146;52.268;20.944;2022-08-19T00:52:51;16.30;;;8.10;;
44440;SDS011;30146;52.268;20.944;2022-08-19T00:55:21;12.20;;;8.30;;
44440;SDS011;30146;52.268;20.944;2022-08-19T00:57:53;14.50;;;8.30;;
44440;SDS011;30146;52.268;20.944;2022-08-19T01:00:25;17.30;;;8.70;;
44440;SDS011;30146;52.268;20.944;2022-08-19T01:02:55;16.40;;;9.90;;
44440;SDS011;30146;52.268;20.944;2022-08-19T01:05:27;12.60;;;8.30;;
44440;SDS011;30146;52.268;20.944;2022-08-19T01:07:56;15.50;;;8.60;;
44440;SDS011;30146;52.268;20.944;2022-08-19T01:10:29;16.40;;;8.30;;
44440;SDS011;30146;52.268;20.944;2022-08-19T01:13:03;14.30;;;9.10;;
44440;SDS011;30146;52.268;20.944;2022-08-19T01:15:34;17.00;;;8.70;;
44440;SDS011;30146;52.268;20.944;2022-08-19T01:18:09;15.90;;;8.80;;
44440;SDS011;30146;52.268;20.944;2022-08-19T01:20:40;16.30;;;8.70;;
44440;SDS011;30146;52.268;20.944;2022-08-19T01:23:09;13.70;;;8.80;;
44440;SDS011;30146;52.268;20.944;2022-08-19T01:25:41;13.40;;;9.50;;
44440;SDS011;30146;52.268;20.944;2022-08-19T01:28:16;17.00;;;9.20;;
44440;SDS011;30146;52.268;20.944;2022-08-19T01:31:07;22.80;;;9.40;;
44440;SDS011;30146;52.268;20.944;2022-08-19T01:33:54;11.60;;;8.50;;
44440;SDS011;30146;52.268;20.944;2022-08-19T01:36:26;14.60;;;9.10;;
44440;SDS011;30146;52.268;20.944;2022-08-19T01:38:59;15.00;;;9.30;;
44440;SDS011;30146;52.268;20.944;2022-08-19T01:41:29;11.70;;;9.00;;
44440;SDS011;30146;52.268;20.944;2022-08-19T01:43:57;24.90;;;9.60;;
44440;SDS011;30146;52.268;20.944;2022-08-19T01:46:45;15.70;;;9.00;;
44440;SDS011;30146;52.268;20.944;2022-08-19T01:49:15;21.00;;;9.90;;
44440;SDS011;30146;52.268;20.944;2022-08-19T01:51:46;19.80;;;9.10;;
44440;SDS011;30146;52.268;20.944;2022-08-19T01:54:16;16.90;;;9.90;;
44440;SDS011;30146;52.268;20.944;2022-08-19T01:56:54;13.90;;;10.20;;
44440;SDS011;30146;52.268;20.944;2022-08-19T01:59:26;13.50;;;9.70;;
44440;SDS011;30146;52.268;20.944;2022-08-19T02:01:55;22.60;;;9.50;;
44440;SDS011;30146;52.268;20.944;2022-08-19T02:04:24;20.40;;;9.90;;
44440;SDS011;30146;52.268;20.944;2022-08-19T02:06:53;13.70;;;9.70;;
44440;SDS011;30146;52.268;20.944;2022-08-19T02:09:22;16.10;;;8.80;;
44440;SDS011;30146;52.268;20.944;2022-08-19T02:11:50;20.90;;;9.60;;
44440;SDS011;30146;52.268;20.944;2022-08-19T02:14:20;19.20;;;9.40;;
44440;SDS011;30146;52.268;20.944;2022-08-19T02:16:48;15.00;;;8.40;;
44440;SDS011;30146;52.268;20.944;2022-08-19T02:19:17;19.00;;;9.40;;
44440;SDS011;30146;52.268;20.944;2022-08-19T02:21:45;18.60;;;9.30;;
44440;SDS011;30146;52.268;20.944;2022-08-19T02:24:14;13.00;;;9.20;;
44440;SDS011;30146;52.268;20.944;2022-08-19T02:26:42;13.10;;;9.30;;
44440;SDS011;30146;52.268;20.944;2022-08-19T02:29:11;22.00;;;9.50;;
44440;SDS011;30146;52.268;20.944;2022-08-19T02:31:39;21.50;;;9.50;;
44440;SDS011;30146;52.268;20.944;2022-08-19T02:34:08;14.70;;;9.60;;
44440;SDS011;30146;52.268;20.944;2022-08-19T02:36:36;18.90;;;9.50;;
44440;SDS011;30146;52.268;20.944;2022-08-19T02:39:09;15.30;;;9.30;;
44440;SDS011;30146;52.268;20.944;2022-08-19T02:41:37;20.40;;;9.70;;
44440;SDS011;30146;52.268;20.944;2022-08-19T02:44:06;18.60;;;10.20;;
44440;SDS011;30146;52.268;20.944;2022-08-19T02:46:54;14.00;;;9.30;;
44440;SDS011;30146;52.268;20.944;2022-08-19T02:49:22;13.80;;;10.20;;
44440;SDS011;30146;52.268;20.944;2022-08-19T02:51:51;13.00;;;9.40;;
44440;SDS011;30146;52.268;20.944;2022-08-19T02:54:19;15.40;;;9.40;;
44440;SDS011;30146;52.268;20.944;2022-08-19T02:56:49;18.60;;;10.60;;
44440;SDS011;30146;52.268;20.944;2022-08-19T02:59:17;17.20;;;10.00;;
44440;SDS011;30146;52.268;20.944;2022-08-19T03:01:49;15.50;;;8.80;;
44440;SDS011;30146;52.268;20.944;2022-08-19T03:04:18;17.30;;;9.70;;
44440;SDS011;30146;52.268;20.944;2022-08-19T03:06:47;17.70;;;9.10;;
44440;SDS011;30146;52.268;20.944;2022-08-19T03:09:16;14.90;;;9.20;;
44440;SDS011;30146;52.268;20.944;2022-08-19T03:11:46;14.10;;;8.80;;
44440;SDS011;30146;52.268;20.944;2022-08-19T03:14:19;23.10;;;9.50;;
44440;SDS011;30146;52.268;20.944;2022-08-19T03:16:48;18.40;;;9.50;;
44440;SDS011;30146;52.268;20.944;2022-08-19T03:19:19;22.30;;;10.80;;
44440;SDS011;30146;52.268;20.944;2022-08-19T03:21:48;23.90;;;10.30;;
44440;SDS011;30146;52.268;20.944;2022-08-19T03:24:17;11.00;;;9.10;;
44440;SDS011;30146;52.268;20.944;2022-08-19T03:26:47;20.60;;;9.90;;
44440;SDS011;30146;52.268;20.944;2022-08-19T03:29:18;15.20;;;9.00;;
44440;SDS011;30146;52.268;20.944;2022-08-19T03:31:57;14.70;;;9.70;;
44440;SDS011;30146;52.268;20.944;2022-08-19T03:34:29;13.80;;;9.90;;
44440;SDS011;30146;52.268;20.944;2022-08-19T03:37:02;15.90;;;10.40;;
44440;SDS011;30146;52.268;20.944;2022-08-19T03:39:33;14.30;;;9.20;;
44440;SDS011;30146;52.268;20.944;2022-08-19T03:42:03;14.40;;;10.30;;
44440;SDS011;30146;52.268;20.944;2022-08-19T03:44:52;15.30;;;10.30;;
44440;SDS011;30146;52.268;20.944;2022-08-19T03:47:20;17.20;;;9.20;;
44440;SDS011;30146;52.268;20.944;2022-08-19T03:49:49;20.90;;;10.30;;
44440;SDS011;30146;52.268;20.944;2022-08-19T03:52:17;16.10;;;10.20;;
44440;SDS011;30146;52.268;20.944;2022-08-19T03:54:46;17.80;;;9.80;;
44440;SDS011;30146;52.268;20.944;2022-08-19T03:57:14;18.20;;;9.70;;
44440;SDS011;30146;52.268;20.944;2022-08-19T03:59:43;19.00;;;9.40;;
44440;SDS011;30146;52.268;20.944;2022-08-19T04:02:11;20.00;;;10.50;;
44440;SDS011;30146;52.268;20.944;2022-08-19T04:04:40;21.70;;;10.20;;
44440;SDS011;30146;52.268;20.944;2022-08-19T04:07:11;18.30;;;9.90;;
44440;SDS011;30146;52.268;20.944;2022-08-19T04:09:42;14.90;;;9.70;;
44440;SDS011;30146;52.268;20.944;2022-08-19T04:12:11;15.30;;;9.80;;
44440;SDS011;30146;52.268;20.944;2022-08-19T04:14:39;15.60;;;9.20;;
44440;SDS011;30146;52.268;20.944;2022-08-19T04:17:08;18.40;;;9.60;;
44440;SDS011;30146;52.268;20.944;2022-08-19T04:19:39;19.10;;;10.30;;
44440;SDS011;30146;52.268;20.944;2022-08-19T04:22:09;23.20;;;9.60;;
44440;SDS011;30146;52.268;20.944;2022-08-19T04:24:38;24.70;;;9.30;;
44440;SDS011;30146;52.268;20.944;2022-08-19T04:27:07;15.10;;;9.30;;
44440;SDS011;30146;52.268;20.944;2022-08-19T04:29:35;16.90;;;9.50;;
44440;SDS011;30146;52.268;20.944;2022-08-19T04:32:06;25.70;;;10.10;;
44440;SDS011;30146;52.268;20.944;2022-08-19T04:34:36;12.30;;;9.20;;
44440;SDS011;30146;52.268;20.944;2022-08-19T04:37:25;16.90;;;9.80;;
44440;SDS011;30146;52.268;20.944;2022-08-19T04:40:02;17.60;;;9.70;;
44440;SDS011;30146;52.268;20.944;2022-08-19T04:42:52;14.50;;;9.50;;
44440;SDS011;30146;52.268;20.944;2022-08-19T04:45:21;18.70;;;10.20;;
44440;SDS011;30146;52.268;20.944;2022-08-19T04:47:54;17.40;;;9.70;;
44440;SDS011;30146;52.268;20.944;2022-08-19T04:50:43;15.50;;;9.20;;
44440;SDS011;30146;52.268;20.944;2022-08-19T04:53:12;17.80;;;10.80;;
44440;SDS011;30146;52.268;20.944;2022-08-19T04:55:41;19.70;;;8.90;;
44440;SDS011;30146;52.268;20.944;2022-08-19T04:58:10;22.00;;;9.80;;
44440;SDS011;30146;52.268;20.944;2022-08-19T05:00:38;18.30;;;9.40;;
44440;SDS011;30146;52.268;20.944;2022-08-19T05:03:07;24.10;;;9.10;;
44440;SDS011;30146;52.268;20.944;2022-08-19T05:05:39;19.50;;;9.80;;
44440;SDS011;30146;52.268;20.944;2022-08-19T05:08:12;16.10;;;9.30;;
44440;SDS011;30146;52.268;20.944;2022-08-19T05:10:57;15.70;;;9.70;;
44440;SDS011;30146;52.268;20.944;2022-08-19T05:13:26;16.10;;;8.40;;
44440;SDS011;30146;52.268;20.944;2022-08-19T05:15:55;14.80;;;9.40;;
44440;SDS011;30146;52.268;20.944;2022-08-19T05:18:26;14.60;;;8.80;;
44440;SDS011;30146;52.268;20.944;2022-08-19T05:21:13;17.60;;;8.70;;
44440;SDS011;30146;52.268;20.944;2022-08-19T05:24:03;11.60;;;8.00;;
44440;SDS011;30146;52.268;20.944;2022-08-19T05:26:35;16.10;;;8.20;;
44440;SDS011;30146;52.268;20.944;2022-08-19T05:29:04;17.90;;;8.90;;
44440;SDS011;30146;52.268;20.944;2022-08-19T05:31:36;19.60;;;8.30;;
44440;SDS011;30146;52.268;20.944;2022-08-19T05:34:08;16.20;;;8.40;;
44440;SDS011;30146;52.268;20.944;2022-08-19T05:36:47;18.40;;;7.90;;
44440;SDS011;30146;52.268;20.944;2022-08-19T05:39:19;11.90;;;8.30;;
44440;SDS011;30146;52.268;20.944;2022-08-19T05:41:48;16.00;;;8.60;;
44440;SDS011;30146;52.268;20.944;2022-08-19T05:44:19;17.30;;;8.60;;
44440;SDS011;30146;52.268;20.944;2022-08-19T05:46:48;13.00;;;8.50;;
44440;SDS011;30146;52.268;20.944;2022-08-19T05:49:20;12.80;;;8.50;;
44440;SDS011;30146;52.268;20.944;2022-08-19T05:51:49;16.70;;;8.00;;
44440;SDS011;30146;52.268;20.944;2022-08-19T05:54:18;14.30;;;8.20;;
44440;SDS011;30146;52.268;20.944;2022-08-19T05:56:47;16.90;;;8.50;;
44440;SDS011;30146;52.268;20.944;2022-08-19T05:59:16;17.70;;;8.50;;
44440;SDS011;30146;52.268;20.944;2022-08-19T06:01:53;11.70;;;7.40;;
44440;SDS011;30146;52.268;20.944;2022-08-19T06:04:22;15.60;;;7.60;;
44440;SDS011;30146;52.268;20.944;2022-08-19T06:06:52;11.00;;;7.70;;
44440;SDS011;30146;52.268;20.944;2022-08-19T06:09:23;10.50;;;7.80;;
44440;SDS011;30146;52.268;20.944;2022-08-19T06:11:52;21.70;;;7.50;;
44440;SDS011;30146;52.268;20.944;2022-08-19T06:14:23;13.60;;;7.80;;
44440;SDS011;30146;52.268;20.944;2022-08-19T06:16:54;16.60;;;7.80;;
44440;SDS011;30146;52.268;20.944;2022-08-19T06:19:23;14.00;;;7.10;;
44440;SDS011;30146;52.268;20.944;2022-08-19T06:21:52;15.40;;;7.40;;
44440;SDS011;30146;52.268;20.944;2022-08-19T06:24:21;16.50;;;7.80;;
44440;SDS011;30146;52.268;20.944;2022-08-19T06:26:52;12.70;;;7.50;;
44440;SDS011;30146;52.268;20.944;2022-08-19T06:29:27;15.60;;;8.20;;
44440;SDS011;30146;52.268;20.944;2022-08-19T06:31:58;11.80;;;7.30;;
44440;SDS011;30146;52.268;20.944;2022-08-19T06:34:28;13.40;;;7.40;;
44440;SDS011;30146;52.268;20.944;2022-08-19T06:36:59;16.40;;;7.70;;
44440;SDS011;30146;52.268;20.944;2022-08-19T06:39:35;22.80;;;8.70;;
44440;SDS011;30146;52.268;20.944;2022-08-19T06:42:05;12.50;;;7.70;;
44440;SDS011;30146;52.268;20.944;2022-08-19T06:44:38;10.60;;;7.20;;
44440;SDS011;30146;52.268;20.944;2022-08-19T06:47:15;13.40;;;7.70;;
44440;SDS011;30146;52.268;20.944;2022-08-19T06:49:55;15.80;;;7.70;;
44440;SDS011;30146;52.268;20.944;2022-08-19T06:52:29;10.70;;;7.50;;
44440;SDS011;30146;52.268;20.944;2022-08-19T06:55:01;18.40;;;7.10;;
44440;SDS011;30146;52.268;20.944;2022-08-19T06:57:33;14.10;;;7.50;;
44440;SDS011;30146;52.268;20.944;2022-08-19T07:00:02;12.70;;;7.40;;
44440;SDS011;30146;52.268;20.944;2022-08-19T07:02:39;18.60;;;7.70;;
44440;SDS011;30146;52.268;20.944;2022-08-19T07:05:10;14.90;;;6.80;;
44440;SDS011;30146;52.268;20.944;2022-08-19T07:07:40;16.30;;;6.70;;
44440;SDS011;30146;52.268;20.944;2022-08-19T07:10:14;13.60;;;6.60;;
44440;SDS011;30146;52.268;20.944;2022-08-19T07:12:43;13.10;;;7.00;;
44440;SDS011;30146;52.268;20.944;2022-08-19T07:15:12;22.60;;;7.30;;
44440;SDS011;30146;52.268;20.944;2022-08-19T07:17:42;15.30;;;7.20;;
44440;SDS011;30146;52.268;20.944;2022-08-19T07:20:14;20.80;;;7.70;;
44440;SDS011;30146;52.268;20.944;2022-08-19T07:22:44;17.00;;;7.70;;
44440;SDS011;30146;52.268;20.944;2022-08-19T07:25:14;12.50;;;7.20;;
44440;SDS011;30146;52.268;20.944;2022-08-19T07:27:44;19.80;;;7.40;;
44440;SDS011;30146;52.268;20.944;2022-08-19T07:30:20;9.70;;;6.60;;
44440;SDS011;30146;52.268;20.944;2022-08-19T07:32:54;13.30;;;7.00;;
44440;SDS011;30146;52.268;20.944;2022-08-19T07:35:23;17.40;;;7.00;;
44440;SDS011;30146;52.268;20.944;2022-08-19T07:37:52;17.20;;;7.10;;
44440;SDS011;30146;52.268;20.944;2022-08-19T07:40:22;15.70;;;7.00;;
44440;SDS011;30146;52.268;20.944;2022-08-19T07:42:51;12.60;;;7.80;;
44440;SDS011;30146;52.268;20.944;2022-08-19T07:45:19;11.90;;;8.10;;
44440;SDS011;30146;52.268;20.944;2022-08-19T07:47:48;13.30;;;8.00;;
44440;SDS011;30146;52.268;20.944;2022-08-19T07:50:18;10.30;;;6.90;;
44440;SDS011;30146;52.268;20.944;2022-08-19T07:52:48;12.40;;;6.80;;
44440;SDS011;30146;52.268;20.944;2022-08-19T07:55:18;13.60;;;7.20;;
44440;SDS011;30146;52.268;20.944;2022-08-19T07:58:11;13.20;;;7.10;;
44440;SDS011;30146;52.268;20.944;2022-08-19T08:00:42;10.20;;;7.40;;
44440;SDS011;30146;52.268;20.944;2022-08-19T08:03:13;25.90;;;7.30;;
44440;SDS011;30146;52.268;20.944;2022-08-19T08:05:42;16.10;;;7.70;;
44440;SDS011;30146;52.268;20.944;2022-08-19T08:08:30;17.80;;;7.30;;
44440;SDS011;30146;52.268;20.944;2022-08-19T08:11:19;23.40;;;8.20;;
44440;SDS011;30146;52.268;20.944;2022-08-19T08:13:50;29.10;;;7.50;;
44440;SDS011;30146;52.268;20.944;2022-08-19T08:16:32;12.60;;;7.20;;
44440;SDS011;30146;52.268;20.944;2022-08-19T08:19:14;12.10;;;8.00;;
44440;SDS011;30146;52.268;20.944;2022-08-19T08:21:52;12.20;;;7.30;;
44440;SDS011;30146;52.268;20.944;2022-08-19T08:24:22;17.10;;;7.80;;
44440;SDS011;30146;52.268;20.944;2022-08-19T08:26:55;17.20;;;7.60;;
44440;SDS011;30146;52.268;20.944;2022-08-19T08:29:27;15.50;;;8.10;;
44440;SDS011;30146;52.268;20.944;2022-08-19T08:32:02;14.70;;;7.30;;
44440;SDS011;30146;52.268;20.944;2022-08-19T08:34:41;13.70;;;7.60;;
44440;SDS011;30146;52.268;20.944;2022-08-19T08:37:13;18.30;;;7.40;;
44440;SDS011;30146;52.268;20.944;2022-08-19T08:39:42;20.60;;;7.70;;
44440;SDS011;30146;52.268;20.944;2022-08-19T08:42:11;16.30;;;7.90;;
44440;SDS011;30146;52.268;20.944;2022-08-19T08:44:48;12.10;;;7.10;;
44440;SDS011;30146;52.268;20.944;2022-08-19T08:47:31;16.40;;;7.70;;
44440;SDS011;30146;52.268;20.944;2022-08-19T08:50:09;16.60;;;7.40;;
44440;SDS011;30146;52.268;20.944;2022-08-19T08:52:44;20.90;;;7.50;;
44440;SDS011;30146;52.268;20.944;2022-08-19T08:55:15;15.00;;;7.40;;
44440;SDS011;30146;52.268;20.944;2022-08-19T08:57:50;21.30;;;7.90;;
44440;SDS011;30146;52.268;20.944;2022-08-19T09:00:27;15.60;;;7.90;;
44440;SDS011;30146;52.268;20.944;2022-08-19T09:02:57;17.30;;;7.90;;
44440;SDS011;30146;52.268;20.944;2022-08-19T09:05:33;21.30;;;8.40;;
44440;SDS011;30146;52.268;20.944;2022-08-19T09:08:17;14.80;;;8.40;;
44440;SDS011;30146;52.268;20.944;2022-08-19T09:10:58;11.70;;;8.00;;
44440;SDS011;30146;52.268;20.944;2022-08-19T09:13:33;14.80;;;8.00;;
44440;SDS011;30146;52.268;20.944;2022-08-19T09:16:10;13.60;;;8.20;;
44440;SDS011;30146;52.268;20.944;2022-08-19T09:18:42;15.90;;;8.30;;
44440;SDS011;30146;52.268;20.944;2022-08-19T09:21:13;14.00;;;7.90;;
44440;SDS011;30146;52.268;20.944;2022-08-19T09:23:43;17.50;;;8.20;;
44440;SDS011;30146;52.268;20.944;2022-08-19T09:26:18;13.50;;;8.20;;
44440;SDS011;30146;52.268;20.944;2022-08-19T09:28:50;11.90;;;7.50;;
44440;SDS011;30146;52.268;20.944;2022-08-19T09:31:25;21.20;;;7.70;;
44440;SDS011;30146;52.268;20.944;2022-08-19T09:33:55;11.60;;;6.40;;
44440;SDS011;30146;52.268;20.944;2022-08-19T09:36:25;13.30;;;6.70;;
44440;SDS011;30146;52.268;20.944;2022-08-19T09:39:01;11.30;;;6.50;;
44440;SDS011;30146;52.268;20.944;2022-08-19T09:41:42;13.20;;;7.20;;
44440;SDS011;30146;52.268;20.944;2022-08-19T09:44:15;16.50;;;6.80;;
44440;SDS011;30146;52.268;20.944;2022-08-19T09:46:45;11.60;;;7.80;;
44440;SDS011;30146;52.268;20.944;2022-08-19T09:49:14;11.20;;;6.40;;
44440;SDS011;30146;52.268;20.944;2022-08-19T09:51:44;15.80;;;7.10;;
44440;SDS011;30146;52.268;20.944;2022-08-19T09:54:17;16.60;;;6.70;;
44440;SDS011;30146;52.268;20.944;2022-08-19T09:56:52;14.70;;;7.20;;
44440;SDS011;30146;52.268;20.944;2022-08-19T10:02:34;14.10;;;6.90;;
44440;SDS011;30146;52.268;20.944;2022-08-19T10:05:03;14.50;;;7.10;;
44440;SDS011;30146;52.268;20.944;2022-08-19T10:07:53;16.40;;;6.90;;
44440;SDS011;30146;52.268;20.944;2022-08-19T10:10:23;11.20;;;6.40;;
44440;SDS011;30146;52.268;20.944;2022-08-19T10:12:53;14.80;;;7.40;;
44440;SDS011;30146;52.268;20.944;2022-08-19T10:15:21;11.00;;;7.30;;
44440;SDS011;30146;52.268;20.944;2022-08-19T10:17:56;14.20;;;6.90;;
44440;SDS011;30146;52.268;20.944;2022-08-19T10:20:27;12.40;;;7.40;;
44440;SDS011;30146;52.268;20.944;2022-08-19T10:22:56;15.40;;;7.30;;
44440;SDS011;30146;52.268;20.944;2022-08-19T10:25:26;17.00;;;6.60;;
44440;SDS011;30146;52.268;20.944;2022-08-19T10:27:56;11.80;;;6.90;;
44440;SDS011;30146;52.268;20.944;2022-08-19T10:30:24;12.50;;;6.80;;
44440;SDS011;30146;52.268;20.944;2022-08-19T10:32:52;14.50;;;6.40;;
44440;SDS011;30146;52.268;20.944;2022-08-19T10:35:22;14.60;;;6.50;;
44440;SDS011;30146;52.268;20.944;2022-08-19T10:37:53;16.40;;;7.00;;
44440;SDS011;30146;52.268;20.944;2022-08-19T10:40:28;14.30;;;7.60;;
44440;SDS011;30146;52.268;20.944;2022-08-19T10:42:57;16.20;;;6.60;;
44440;SDS011;30146;52.268;20.944;2022-08-19T10:45:25;19.20;;;6.90;;
44440;SDS011;30146;52.268;20.944;2022-08-19T10:47:54;14.50;;;6.60;;
44440;SDS011;30146;52.268;20.944;2022-08-19T10:50:25;20.70;;;7.70;;
44440;SDS011;30146;52.268;20.944;2022-08-19T10:53:12;14.40;;;6.90;;
44440;SDS011;30146;52.268;20.944;2022-08-19T10:55:41;14.50;;;6.80;;
44440;SDS011;30146;52.268;20.944;2022-08-19T10:58:30;15.20;;;6.80;;
44440;SDS011;30146;52.268;20.944;2022-08-19T11:00:59;10.70;;;7.00;;
44440;SDS011;30146;52.268;20.944;2022-08-19T11:03:27;16.00;;;6.30;;
44440;SDS011;30146;52.268;20.944;2022-08-19T11:06:00;15.00;;;7.20;;
44440;SDS011;30146;52.268;20.944;2022-08-19T11:08:30;22.40;;;8.00;;
44440;SDS011;30146;52.268;20.944;2022-08-19T11:11:02;18.80;;;6.60;;
44440;SDS011;30146;52.268;20.944;2022-08-19T11:13:32;20.90;;;7.00;;
44440;SDS011;30146;52.268;20.944;2022-08-19T11:16:05;24.80;;;6.80;;
44440;SDS011;30146;52.268;20.944;2022-08-19T11:18:36;17.80;;;6.60;;
44440;SDS011;30146;52.268;20.944;2022-08-19T11:21:07;23.90;;;7.10;;
44440;SDS011;30146;52.268;20.944;2022-08-19T11:23:37;13.40;;;6.70;;
44440;SDS011;30146;52.268;20.944;2022-08-19T11:26:05;11.00;;;5.90;;
44440;SDS011;30146;52.268;20.944;2022-08-19T11:28:34;16.80;;;7.20;;
44440;SDS011;30146;52.268;20.944;2022-08-19T11:31:03;12.40;;;6.60;;
44440;SDS011;30146;52.268;20.944;2022-08-19T11:33:31;23.40;;;6.80;;
44440;SDS011;30146;52.268;20.944;2022-08-19T11:36:00;13.60;;;6.30;;
44440;SDS011;30146;52.268;20.944;2022-08-19T11:38:29;11.10;;;6.40;;
44440;SDS011;30146;52.268;20.944;2022-08-19T11:40:58;8.10;;;6.20;;
44440;SDS011;30146;52.268;20.944;2022-08-19T11:43:28;21.10;;;6.90;;
44440;SDS011;30146;52.268;20.944;2022-08-19T11:46:04;13.30;;;6.90;;
44440;SDS011;30146;52.268;20.944;2022-08-19T11:48:34;17.00;;;6.80;;
44440;SDS011;30146;52.268;20.944;2022-08-19T11:51:03;15.20;;;7.10;;
44440;SDS011;30146;52.268;20.944;2022-08-19T11:53:35;12.30;;;6.70;;
44440;SDS011;30146;52.268;20.944;2022-08-19T11:56:05;14.40;;;6.60;;
44440;SDS011;30146;52.268;20.944;2022-08-19T11:58:35;22.40;;;7.10;;
44440;SDS011;30146;52.268;20.944;2022-08-19T12:01:05;13.90;;;7.20;;
44440;SDS011;30146;52.268;20.944;2022-08-19T12:03:34;13.10;;;6.30;;
44440;SDS011;30146;52.268;20.944;2022-08-19T12:06:06;14.10;;;6.30;;
44440;SDS011;30146;52.268;20.944;2022-08-19T12:08:36;13.10;;;6.60;;
44440;SDS011;30146;52.268;20.944;2022-08-19T12:11:05;14.50;;;6.50;;
44440;SDS011;30146;52.268;20.944;2022-08-19T12:13:34;19.40;;;6.40;;
44440;SDS011;30146;52.268;20.944;2022-08-19T12:16:07;19.00;;;6.50;;
44440;SDS011;30146;52.268;20.944;2022-08-19T12:21:08;14.80;;;6.30;;
44440;SDS011;30146;52.268;20.944;2022-08-19T12:23:37;16.10;;;6.00;;
44440;SDS011;30146;52.268;20.944;2022-08-19T12:26:06;10.00;;;6.30;;
44440;SDS011;30146;52.268;20.944;2022-08-19T12:28:36;9.20;;;6.10;;
44440;SDS011;30146;52.268;20.944;2022-08-19T12:31:05;12.80;;;6.20;;
44440;SDS011;30146;52.268;20.944;2022-08-19T12:33:34;12.90;;;6.30;;
44440;SDS011;30146;52.268;20.944;2022-08-19T12:36:04;15.70;;;5.90;;
44440;SDS011;30146;52.268;20.944;2022-08-19T12:38:34;14.90;;;6.80;;
44440;SDS011;30146;52.268;20.944;2022-08-19T12:41:04;15.00;;;6.50;;
44440;SDS011;30146;52.268;20.944;2022-08-19T12:43:34;19.40;;;6.80;;
44440;SDS011;30146;52.268;20.944;2022-08-19T12:46:03;12.60;;;5.70;;
44440;SDS011;30146;52.268;20.944;2022-08-19T12:48:32;10.10;;;6.10;;
44440;SDS011;30146;52.268;20.944;2022-08-19T12:51:05;18.50;;;6.20;;
44440;SDS011;30146;52.268;20.944;2022-08-19T12:53:35;18.00;;;6.10;;
44440;SDS011;30146;52.268;20.944;2022-08-19T12:56:06;11.60;;;6.50;;
44440;SDS011;30146;52.268;20.944;2022-08-19T12:58:39;13.40;;;6.60;;
44440;SDS011;30146;52.268;20.944;2022-08-19T13:01:15;13.20;;;6.40;;
44440;SDS011;30146;52.268;20.944;2022-08-19T13:03:49;11.30;;;6.20;;
44440;SDS011;30146;52.268;20.944;2022-08-19T13:06:19;12.10;;;6.40;;
44440;SDS011;30146;52.268;20.944;2022-08-19T13:08:48;12.50;;;6.20;;
44440;SDS011;30146;52.268;20.944;2022-08-19T13:11:18;12.10;;;6.30;;
44440;SDS011;30146;52.268;20.944;2022-08-19T13:13:48;7.90;;;5.40;;
44440;SDS011;30146;52.268;20.944;2022-08-19T13:16:18;13.50;;;5.30;;
44440;SDS011;30146;52.268;20.944;2022-08-19T13:18:49;10.50;;;6.20;;
44440;SDS011;30146;52.268;20.944;2022-08-19T13:21:19;12.00;;;6.10;;
44440;SDS011;30146;52.268;20.944;2022-08-19T13:23:50;12.10;;;5.50;;
44440;SDS011;30146;52.268;20.944;2022-08-19T13:26:19;13.20;;;5.90;;
44440;SDS011;30146;52.268;20.944;2022-08-19T13:28:48;19.10;;;6.50;;
44440;SDS011;30146;52.268;20.944;2022-08-19T13:31:35;13.10;;;6.20;;
44440;SDS011;30146;52.268;20.944;2022-08-19T13:34:29;11.60;;;5.40;;
44440;SDS011;30146;52.268;20.944;2022-08-19T13:37:01;12.00;;;6.40;;
44440;SDS011;30146;52.268;20.944;2022-08-19T13:39:31;15.90;;;6.70;;
44440;SDS011;30146;52.268;20.944;2022-08-19T13:42:01;13.40;;;5.60;;
44440;SDS011;30146;52.268;20.944;2022-08-19T13:44:31;15.00;;;6.30;;
44440;SDS011;30146;52.268;20.944;2022-08-19T13:47:00;14.50;;;5.50;;
44440;SDS011;30146;52.268;20.944;2022-08-19T13:49:33;15.60;;;6.30;;
44440;SDS011;30146;52.268;20.944;2022-08-19T13:52:03;9.50;;;5.70;;
44440;SDS011;30146;52.268;20.944;2022-08-19T13:54:33;16.40;;;6.70;;
44440;SDS011;30146;52.268;20.944;2022-08-19T13:57:01;9.80;;;6.30;;
44440;SDS011;30146;52.268;20.944;2022-08-19T13:59:30;15.40;;;7.40;;
44440;SDS011;30146;52.268;20.944;2022-08-19T14:01:59;13.20;;;6.50;;
44440;SDS011;30146;52.268;20.944;2022-08-19T14:04:28;16.80;;;6.00;;
44440;SDS011;30146;52.268;20.944;2022-08-19T14:06:56;12.70;;;6.30;;
44440;SDS011;30146;52.268;20.944;2022-08-19T14:09:25;12.90;;;5.40;;
44440;SDS011;30146;52.268;20.944;2022-08-19T14:11:53;16.60;;;5.60;;
44440;SDS011;30146;52.268;20.944;2022-08-19T14:14:22;12.10;;;5.80;;
44440;SDS011;30146;52.268;20.944;2022-08-19T14:16:50;13.40;;;5.90;;
44440;SDS011;30146;52.268;20.944;2022-08-19T14:19:19;17.20;;;5.80;;
44440;SDS011;30146;52.268;20.944;2022-08-19T14:21:48;11.90;;;5.90;;
44440;SDS011;30146;52.268;20.944;2022-08-19T14:24:16;12.70;;;5.50;;
44440;SDS011;30146;52.268;20.944;2022-08-19T14:26:44;18.30;;;6.20;;
44440;SDS011;30146;52.268;20.944;2022-08-19T14:29:13;14.70;;;5.90;;
44440;SDS011;30146;52.268;20.944;2022-08-19T14:31:41;13.70;;;5.80;;
44440;SDS011;30146;52.268;20.944;2022-08-19T14:34:10;10.00;;;5.40;;
44440;SDS011;30146;52.268;20.944;2022-08-19T14:36:39;8.90;;;5.30;;
44440;SDS011;30146;52.268;20.944;2022-08-19T14:39:09;10.30;;;5.30;;
44440;SDS011;30146;52.268;20.944;2022-08-19T14:41:39;10.80;;;5.70;;
44440;SDS011;30146;52.268;20.944;2022-08-19T14:44:08;16.70;;;5.90;;
44440;SDS011;30146;52.268;20.944;2022-08-19T14:46:39;15.30;;;5.70;;
44440;SDS011;30146;52.268;20.944;2022-08-19T14:49:15;12.80;;;6.00;;
44440;SDS011;30146;52.268;20.944;2022-08-19T14:51:45;10.20;;;5.20;;